Terminal Aerodrome Forecast
Issued by NWS

Current Version | Previous Version | Text Only | Print | Product List | Glossary On
Versions: 1 2 3 4 5 6 7 8 9 10 11
367
FTUS43 KMPX 241126
TAFRWF
TAF
KRWF 241126Z 2412/2512 16015G23KT P6SM BKN200
     FM241800 18020G31KT P6SM BKN120
     FM250000 19013G21KT P6SM BKN050
     FM250400 22009KT P6SM OVC040
     FM250800 30009KT P6SM OVC030=

USA.gov is the U.S. government's official web portal to all federal, state and local government web resources and services.